EPKK Airport Information

Runway Information
Runway 07 Length 8366 ft width 197 ft
Elevation 792 ft Threshold 0 ft Heading 78
Runway 25 Length 8366 ft Width 197 ft
Elevation 779 ft Threshold 784 ft Heading 258
Airport Frequencies
Type APP Name KRAKOW APP Frequency 121.075 MHZ
Type ATIS Name ATIS Frequency 126.125 MHZ
Type DIR Name KRAKOW DIR Frequency 123.8 MHZ
Type TWR Name KRAKOW DEL Frequency 118.1 MHZ
Type TWR Name KRAKOW TWR Frequency 123.25 MHZ
Airport Navaids
Type NDB Name Krakow Frequency 353 KHZ
Airport Weather Information & NOTAM
ADDS - METARS form results

(0711 UTC 03 December 2021)
Data provider http://aviationweather.gov/metar/data/
 
METAR text: EPKK 030700Z 25008KT 9999 FEW030 M01/M04 Q1008
Conditions at: EPKK (KRAKOW/BALICE , PL) observed 0700 UTC 03 December 2021
Temperature: -1.0°C (30°F)
Dewpoint: -4.0°C (25°F) [RH = 80%]
Pressure (altimeter): 29.76 inches Hg (1008.0 mb)
Winds: from the WSW (250 degrees) at 9 MPH (8 knots; 4.1 m/s)
Visibility: 6 or more miles (10+ km)
Ceiling: at least 12,000 feet AGL
Clouds: few clouds at 3000 feet AGL
Weather: no significant weather observed at this time

METAR text: EPKK 030630Z 26010KT 9999 FEW022 SCT030 M00/M04 Q1007
Conditions at: EPKK (KRAKOW/BALICE , PL) observed 0630 UTC 03 December 2021
Temperature: 0.0°C (32°F)
Dewpoint: -4.0°C (25°F) [RH = 74%]
Pressure (altimeter): 29.73 inches Hg (1007.0 mb)
Winds: from the W (260 degrees) at 12 MPH (10 knots; 5.1 m/s)
Visibility: 6 or more miles (10+ km)
Ceiling: at least 12,000 feet AGL
Clouds: few clouds at 2200 feet AGL
scattered clouds at 3000 feet AGL
Weather: no significant weather observed at this time

Forecast for: EPKK (KRAKOW/BALICE , PL)
Text: TAF EPKK 030530Z 0306/0406 27010KT 9999 BKN023
Forecast period: 0600 to 2100 UTC 03 December 2021
Forecast type: FROM: standard forecast or significant change
Winds: from the W (270 degrees) at 12 MPH (10 knots; 5.1 m/s)
Visibility: 6 or more miles (10+ km)
Ceiling: 2300 feet AGL
Clouds: broken clouds at 2300 feet AGL
Weather: no significant weather forecast for this period
Text: PROB30
Forecast period: 0600 to 0900 UTC 03 December 2021
Forecast type: TEMPORARY: The following changes expected for less than half the time period
Visibility: missing
Ceiling: 1400 feet AGL
Clouds: broken clouds at 1400 feet AGL
Weather: no significant weather forecast for this period
Text: TEMPO 0306/0309 BKN014
Forecast period: 2100 UTC 03 December 2021 to 0600 UTC 04 December 2021
Forecast type: BECOMING: Conditions expected to become as follows by 0000 UTC 04 December 2021
Winds: variable direction winds at 2 MPH (2 knots; 1.0 m/s)
Visibility: 6 or more miles (10+ km)
Ceiling: 2300 feet AGL
Clouds: broken clouds at 2300 feet AGL
Weather: no significant weather forecast for this period